ストックホルム/アーランダ の空港の天気 - METARとTAF

ストックホルム・アーランダ空港 ( ESSA / ARN ) - スウェーデン ストックホルム
飛行場実況気象(Metar)
観測時間11/17 20:50 CET (11/17 19:50 UTC)
風向・風速西北西 2m/s
視程10km以上
天気現象
なし
気温2℃
湿度100%
気圧1036hPa
METARESSA 171950Z 30004KT CAVOK 02/02 Q1036 R01L/0///95 R08/0///95 R01R/0///95 NOSIG
過去の天気等 Google飛行場航空写真 Wunderground天気予報

過去48時間のMETAR

飛行場予報(TAF)
発表時間: 11/17 18:30 CET (11/17 17:30 UTC)
予報対象時間: 17日19時 CET ~ 18日19時 CET
風向・風速西北西 4m/s
視程10km以上
なし
18日5時 CET ~ 18日6時 CET に徐々に
風向・風速北北東 5m/s
18日7時 CET から 確率 40% で
全天の8割程度の雲 雲底高度 430m
TAF ESSA 171730Z 1718/1818 30007KT CAVOK
BECMG 1804/1805 02010KT
PROB40 1806/1809 BKN014